Ashmore, Illinois
Current Conditions -  °F | °C
As of 2:53 PM on Thursday 18 Dec 2014 (Local Time) from KMTO Reporting Station
Overcast Overcast  
Wind Chill: 25°   Ceiling: 6000
Heat Index: 30°   Visibility: 10mi
Dew Point: 21°   Wind: 5mph
Humidity: 69%   Direction: 340°NNW
Pressure: 30.23"   Gusts: NA
Location:  39.53°N, 88.02°W
Report Text: KMTO 182053Z AUTO 34004KT 10SM OVC060 M01/M06 A3023 RMK AO2 SLP245 T10111061 55008
Loading
Personal Weather Stations






























Interactive Weather Map New forecast layout! Learn more

10-Day Weather Forecast

Advertisements
Track Severe Weather on mobile